Houghton County Memorial Airport
KCMX : now visible

Airfield :











YOU CAN JOIN US ON...

 
LOGIN :

Register | Disclaimer

   EN    FR    IT 

 









Legend :    VFR   Marginal VFR   IFR   Intensive IFR   Very Intensive IFR
Visi :
Ceiling :
>= 8 km
>= 3000ft
5 to 8 km
1000 to 3000 ft
1500m to 5 km
500 to 1000 ft
800 to 1500m
200 to 500 ft
< 800m
< 200 ft
Symbols :   Thunderstorms  Fog  Heavy snow  Heavy precipitations  Wind > 20 kt






- Airport Elevation : 1095 ft
- IATA code : CMX


KCMX - Houghton County Memorial

CURRENT METAR :
  • 142053Z AUTO 02007KT 2SM HZ OVC014 M06/M09 A2970 RMK AO2 SLP074 60000 T10611094 53011

EXPIRED METARs :
  • 142020Z AUTO 36011G18KT 2 1/2SM HZ OVC013 M06/M09 A2969 RMK AO2 T10561089
  • 141953Z AUTO 01013G17KT 3SM HZ OVC013 M06/M09 A2968 RMK AO2 SNB37E47 SLP068 P0000 T10561089
  • 141942Z AUTO 01012KT 2 1/2SM -SN OVC013 M06/M09 A2967 RMK AO2 SNB37 P0000 T10561089
  • 141853Z AUTO 36012KT 10SM OVC012 M05/M08 A2966 RMK AO2 SLP062 T10501083

TAF KCMX
Valid from the 14 at 18:00 until the 15 at 18:00 UTC


141732Z 1418/1518 01010G17KT 5SM -SHSN OVC012
FM150000 35013G22KT 2SM -SHSN BLSN OVC016
FM150800 33009KT 3SM -SHSN OVC015
FM151400 29008KT 3SM -SHSN OVC016



MET'MAP, your aeronautical weather chart ! - Copyright ORBIFLY December 2007 - Disclaimer

ORBIFLY MET'MAP TEAM :

Programming & Development : Alexandra Zaïnal
Concept & original design : Baudouin d'Aumeries
Assistance for programming : Marc-Olivier Méhu
Technical & hardware support : Manuel Goepfert

Contact : metmap@orbifly.com




SOURCES & CREDITS :

   NOAA       Earth
Advisory